createdAt,value
2018-01-29T00:00:44.486Z,99.90
2018-01-29T00:03:10.799Z,99.90
2018-01-29T00:05:39.245Z,99.90
2018-01-29T00:08:05.548Z,99.90
2018-01-29T00:10:31.858Z,99.90
2018-01-29T00:12:58.908Z,99.90
2018-01-29T00:15:25.222Z,99.90
2018-01-29T00:17:52.246Z,99.90
2018-01-29T00:20:18.546Z,99.90
2018-01-29T00:22:44.838Z,99.90
2018-01-29T00:25:11.864Z,99.90
2018-01-29T00:27:38.902Z,99.90
2018-01-29T00:30:05.340Z,99.90
2018-01-29T00:32:32.387Z,99.90
2018-01-29T00:34:58.681Z,99.90
2018-01-29T00:37:24.990Z,99.90
2018-01-29T00:39:51.295Z,99.90
2018-01-29T00:42:18.330Z,99.90
2018-01-29T00:44:44.639Z,99.90
2018-01-29T00:47:10.938Z,99.90
2018-01-29T00:49:37.287Z,99.90
2018-01-29T00:52:04.246Z,99.90
2018-01-29T00:54:30.550Z,99.90
2018-01-29T00:56:56.821Z,99.90
2018-01-29T00:59:23.122Z,99.90
2018-01-29T01:01:49.427Z,99.90
2018-01-29T01:04:15.757Z,99.90
2018-01-29T01:06:42.108Z,99.90
2018-01-29T01:09:08.382Z,99.90
2018-01-29T01:11:36.461Z,99.90
2018-01-29T01:14:03.502Z,99.90
2018-01-29T01:16:30.555Z,99.90
2018-01-29T01:18:57.595Z,99.90
2018-01-29T01:21:24.639Z,99.90
2018-01-29T01:23:50.940Z,99.90
2018-01-29T01:26:17.254Z,99.90
2018-01-29T01:28:43.547Z,99.90
2018-01-29T01:31:10.603Z,99.90
2018-01-29T01:33:36.882Z,99.90
2018-01-29T01:36:04.233Z,99.90
2018-01-29T01:38:30.506Z,99.90
2018-01-29T01:40:57.599Z,99.90
2018-01-29T01:43:23.898Z,99.90
2018-01-29T01:45:50.204Z,99.90
2018-01-29T01:48:17.278Z,99.90
2018-01-29T01:50:43.563Z,99.90
2018-01-29T01:53:09.852Z,99.90
2018-01-29T01:55:36.147Z,99.90
2018-01-29T01:58:03.476Z,99.90
2018-01-29T02:00:30.559Z,99.90
2018-01-29T02:02:57.587Z,99.90
2018-01-29T02:05:23.920Z,99.90
2018-01-29T02:07:50.990Z,99.90
2018-01-29T02:10:17.303Z,99.90
2018-01-29T02:12:46.520Z,99.90
2018-01-29T02:15:13.563Z,99.90
2018-01-29T02:17:41.709Z,99.90
2018-01-29T02:20:08.835Z,99.90
2018-01-29T02:22:35.130Z,99.90
2018-01-29T02:25:01.443Z,99.90
2018-01-29T02:27:29.137Z,99.90
2018-01-29T02:29:56.067Z,99.90
2018-01-29T02:32:22.405Z,99.90
2018-01-29T02:34:48.710Z,99.90
2018-01-29T02:37:15.068Z,99.90
2018-01-29T02:39:41.376Z,99.90
2018-01-29T02:42:08.526Z,99.90
2018-01-29T02:44:34.836Z,99.90
2018-01-29T02:47:01.918Z,99.90
2018-01-29T02:49:28.236Z,99.90
2018-01-29T02:51:55.289Z,99.90
2018-01-29T02:54:21.635Z,99.90
2018-01-29T02:56:47.954Z,99.90
2018-01-29T02:59:14.267Z,99.90
2018-01-29T03:01:40.614Z,99.90
2018-01-29T03:04:07.823Z,99.90
2018-01-29T03:06:34.119Z,99.90
2018-01-29T03:09:00.398Z,99.90
2018-01-29T03:11:27.442Z,99.90
2018-01-29T03:13:53.750Z,99.90
2018-01-29T03:16:20.083Z,99.90
2018-01-29T03:18:46.386Z,99.90
2018-01-29T03:21:12.898Z,99.90
2018-01-29T03:23:39.199Z,99.90
2018-01-29T03:26:06.118Z,99.90
2018-01-29T03:28:32.410Z,99.90
2018-01-29T03:30:58.947Z,99.90
2018-01-29T03:33:25.255Z,99.90
2018-01-29T03:35:52.294Z,99.90
2018-01-29T03:38:19.323Z,99.90
2018-01-29T03:40:45.688Z,99.90
2018-01-29T03:43:13.734Z,99.90
2018-01-29T03:45:40.045Z,99.90
2018-01-29T03:48:06.345Z,99.90
2018-01-29T03:50:32.672Z,99.90
2018-01-29T03:52:58.997Z,99.90
2018-01-29T03:55:25.290Z,99.90
2018-01-29T03:57:51.594Z,99.90
2018-01-29T04:00:17.876Z,99.90
2018-01-29T04:02:44.163Z,99.90
2018-01-29T04:05:11.203Z,99.90
2018-01-29T04:07:37.481Z,99.90
2018-01-29T04:10:03.810Z,99.90
2018-01-29T04:12:30.850Z,99.90
2018-01-29T04:14:58.953Z,99.90
2018-01-29T04:17:25.901Z,99.90
2018-01-29T04:19:52.182Z,99.90
2018-01-29T04:22:18.542Z,99.90
2018-01-29T04:24:44.848Z,99.90
2018-01-29T04:27:11.157Z,99.90
2018-01-29T04:29:37.456Z,99.90
2018-01-29T04:32:03.780Z,99.90
2018-01-29T04:34:30.114Z,99.90
2018-01-29T04:36:56.414Z,99.90
2018-01-29T04:39:23.442Z,99.90
2018-01-29T04:41:50.507Z,99.90
2018-01-29T04:44:17.554Z,99.90
2018-01-29T04:46:43.886Z,99.90
2018-01-29T04:49:10.959Z,99.90
2018-01-29T04:51:37.282Z,99.90
2018-01-29T04:54:03.587Z,99.90
2018-01-29T04:56:30.739Z,99.90
2018-01-29T04:58:57.805Z,99.90
2018-01-29T05:01:24.858Z,99.90
2018-01-29T05:03:51.191Z,99.90
2018-01-29T05:06:17.463Z,99.90
2018-01-29T05:08:43.743Z,99.90
2018-01-29T05:11:10.796Z,99.90
2018-01-29T05:13:37.111Z,99.90
2018-01-29T05:16:04.149Z,99.90
2018-01-29T05:18:32.194Z,99.90
2018-01-29T05:20:58.488Z,99.90
2018-01-29T05:23:24.775Z,99.90
2018-01-29T05:25:51.071Z,99.90
2018-01-29T05:28:17.366Z,99.90
2018-01-29T05:30:43.659Z,99.90
2018-01-29T05:33:09.950Z,99.90
2018-01-29T05:35:37.299Z,99.90
2018-01-29T05:41:00.790Z,99.90
2018-01-29T05:43:27.221Z,99.90
2018-01-29T05:45:53.550Z,99.90
2018-01-29T05:48:19.886Z,99.90
2018-01-29T05:50:46.182Z,99.90
2018-01-29T05:53:13.201Z,99.90
2018-01-29T05:55:39.518Z,99.90
2018-01-29T05:58:05.830Z,99.90
2018-01-29T06:00:32.163Z,99.90
2018-01-29T06:02:58.498Z,99.90
2018-01-29T06:05:24.778Z,99.90
2018-01-29T06:07:52.550Z,99.90
2018-01-29T06:10:18.870Z,99.90
2018-01-29T06:12:45.919Z,99.90
2018-01-29T06:15:12.246Z,99.90
2018-01-29T06:17:39.270Z,99.90
2018-01-29T06:20:05.600Z,99.90
2018-01-29T06:22:31.930Z,99.90
2018-01-29T06:24:58.992Z,99.90
2018-01-29T06:27:26.072Z,99.90
2018-01-29T06:29:52.383Z,99.90
2018-01-29T06:32:19.460Z,99.90
2018-01-29T06:34:45.773Z,99.90
2018-01-29T06:37:12.071Z,99.90
2018-01-29T06:39:38.395Z,99.90
2018-01-29T06:42:04.711Z,99.90
2018-01-29T06:44:32.015Z,99.90
2018-01-29T06:46:58.331Z,99.90
2018-01-29T06:49:25.387Z,99.90
2018-01-29T06:51:51.671Z,99.90
2018-01-29T06:54:17.983Z,99.90
2018-01-29T06:56:44.271Z,99.90
2018-01-29T06:59:11.317Z,99.90
2018-01-29T07:01:38.347Z,99.90
2018-01-29T07:04:04.658Z,99.90
2018-01-29T07:06:30.939Z,99.90
2018-01-29T07:08:57.605Z,99.90
2018-01-29T07:11:23.894Z,99.90
2018-01-29T07:13:50.958Z,99.90
2018-01-29T07:16:17.283Z,99.90
2018-01-29T07:18:43.585Z,99.90
2018-01-29T07:21:09.903Z,99.90
2018-01-29T07:23:36.207Z,99.90
2018-01-29T07:26:02.514Z,99.90
2018-01-29T07:28:28.816Z,99.90
2018-01-29T07:30:55.826Z,99.90
2018-01-29T07:33:22.745Z,99.90
2018-01-29T07:35:49.030Z,99.90
2018-01-29T07:38:16.086Z,99.90
2018-01-29T07:40:43.114Z,99.90
2018-01-29T07:43:10.267Z,99.90
2018-01-29T07:45:36.558Z,99.90
2018-01-29T07:48:02.910Z,99.90
2018-01-29T07:50:29.285Z,99.90
2018-01-29T07:52:56.282Z,99.90
2018-01-29T07:55:22.584Z,99.90
2018-01-29T07:57:48.863Z,99.90
2018-01-29T08:00:15.166Z,99.90
2018-01-29T08:02:41.470Z,99.90
2018-01-29T08:05:07.762Z,99.90
2018-01-29T08:07:34.078Z,99.90
2018-01-29T08:10:00.369Z,99.90
2018-01-29T08:12:26.691Z,99.90
2018-01-29T08:14:52.983Z,99.90
2018-01-29T08:17:19.283Z,99.90
2018-01-29T08:19:45.575Z,99.90
2018-01-29T08:22:11.862Z,99.90
2018-01-29T08:24:38.932Z,99.90
2018-01-29T08:27:05.958Z,99.90
2018-01-29T08:29:32.264Z,99.90
2018-01-29T08:31:58.535Z,99.90
2018-01-29T08:34:25.598Z,99.90
2018-01-29T08:36:52.622Z,99.90
2018-01-29T08:39:19.874Z,99.90
2018-01-29T08:41:46.242Z,99.90
2018-01-29T08:44:12.667Z,99.90
2018-01-29T08:46:39.715Z,99.90
2018-01-29T08:49:06.138Z,99.90
2018-01-29T08:51:33.195Z,99.90
2018-01-29T08:53:59.506Z,99.90
2018-01-29T08:56:26.534Z,99.90
2018-01-29T08:58:52.826Z,99.90
2018-01-29T09:01:19.099Z,99.90
2018-01-29T09:03:45.418Z,99.90
2018-01-29T09:06:11.714Z,99.90
2018-01-29T09:08:38.031Z,99.90
2018-01-29T09:11:04.349Z,99.90
2018-01-29T09:13:30.739Z,99.90
2018-01-29T09:15:57.034Z,99.90
2018-01-29T09:18:23.405Z,99.90
2018-01-29T09:20:49.666Z,99.90
2018-01-29T09:23:16.699Z,99.90
2018-01-29T09:25:43.735Z,99.90
2018-01-29T09:28:10.035Z,99.90
2018-01-29T09:30:36.356Z,99.90
2018-01-29T09:33:02.671Z,99.90
2018-01-29T09:35:28.955Z,99.90
2018-01-29T09:37:55.270Z,99.90
2018-01-29T09:40:21.596Z,99.90
2018-01-29T09:42:47.911Z,99.90
2018-01-29T09:45:14.214Z,99.90
2018-01-29T09:47:40.495Z,99.90
2018-01-29T09:50:06.808Z,99.90
2018-01-29T09:52:33.103Z,99.90
2018-01-29T09:54:59.471Z,99.90
2018-01-29T09:57:26.761Z,99.90
2018-01-29T09:59:53.091Z,99.90
2018-01-29T10:02:20.131Z,99.90
2018-01-29T10:04:46.435Z,99.90
2018-01-29T10:07:12.762Z,99.90
2018-01-29T10:09:39.046Z,99.90
2018-01-29T10:12:06.713Z,99.90
2018-01-29T10:14:34.751Z,99.90
2018-01-29T10:17:01.054Z,99.90
2018-01-29T10:19:27.339Z,99.90
2018-01-29T10:21:54.354Z,99.90
2018-01-29T10:24:21.371Z,99.90
2018-01-29T10:26:47.647Z,99.90
2018-01-29T10:29:14.039Z,99.90
2018-01-29T10:31:40.318Z,99.90
2018-01-29T10:34:15.960Z,99.90
2018-01-29T10:36:42.978Z,99.90
2018-01-29T10:39:10.304Z,99.90
2018-01-29T10:41:36.615Z,99.90
2018-01-29T10:44:02.910Z,99.90
2018-01-29T10:46:29.198Z,99.90
2018-01-29T10:48:55.485Z,99.90
2018-01-29T10:51:22.547Z,99.90
2018-01-29T10:53:48.827Z,99.90
2018-01-29T10:56:15.107Z,99.90
2018-01-29T10:58:41.391Z,99.90
2018-01-29T11:01:13.919Z,99.90
2018-01-29T11:03:41.205Z,99.90
2018-01-29T11:06:07.539Z,99.90
2018-01-29T11:08:33.854Z,99.90
2018-01-29T11:11:02.663Z,99.90
2018-01-29T11:13:28.995Z,99.90
2018-01-29T11:15:55.299Z,99.90
2018-01-29T11:18:22.600Z,99.90
2018-01-29T11:20:50.939Z,99.90
2018-01-29T11:23:17.335Z,99.90
2018-01-29T11:25:44.361Z,99.90
2018-01-29T11:28:10.667Z,99.90
2018-01-29T11:30:36.939Z,99.90
2018-01-29T11:33:04.976Z,99.90
2018-01-29T11:35:42.646Z,99.90
2018-01-29T11:38:08.919Z,99.90
2018-01-29T11:40:35.272Z,99.70
2018-01-29T11:43:01.554Z,99.40
2018-01-29T11:45:27.825Z,98.90
2018-01-29T11:47:54.838Z,99.70
2018-01-29T11:50:21.109Z,99.60
2018-01-29T11:52:55.433Z,98.50
2018-01-29T11:55:21.714Z,99.00
2018-01-29T11:57:48.033Z,98.90
2018-01-29T12:00:14.340Z,99.30
2018-01-29T12:02:40.642Z,97.70
2018-01-29T12:05:07.658Z,97.60
2018-01-29T12:07:34.014Z,97.60
2018-01-29T12:10:01.035Z,97.70
2018-01-29T12:12:27.342Z,97.60
2018-01-29T12:14:53.618Z,97.00
2018-01-29T12:17:20.671Z,96.90
2018-01-29T12:20:10.662Z,96.90
2018-01-29T12:22:37.708Z,97.30
2018-01-29T12:25:05.752Z,97.80
2018-01-29T12:27:33.086Z,97.70
2018-01-29T12:29:59.387Z,96.30
2018-01-29T12:32:25.763Z,97.20
2018-01-29T12:34:52.823Z,96.80
2018-01-29T12:37:19.126Z,96.60
2018-01-29T12:39:45.403Z,96.30
2018-01-29T12:42:11.727Z,95.50
2018-01-29T12:44:39.375Z,95.70
2018-01-29T12:47:07.694Z,95.60
2018-01-29T12:49:34.048Z,95.60
2018-01-29T12:52:00.310Z,95.70
2018-01-29T12:54:30.988Z,93.40
2018-01-29T12:56:57.289Z,93.20
2018-01-29T12:59:24.306Z,93.10
2018-01-29T13:01:51.326Z,91.10
2018-01-29T13:04:17.705Z,90.80
2018-01-29T13:06:45.741Z,88.00
2018-01-29T13:09:12.055Z,88.00
2018-01-29T13:11:39.431Z,86.60
2018-01-29T13:14:05.771Z,85.10
2018-01-29T13:16:32.122Z,81.50
2018-01-29T13:18:59.139Z,79.10
2018-01-29T13:21:26.142Z,78.50
2018-01-29T13:23:52.447Z,80.50
2018-01-29T13:26:19.490Z,79.10
2018-01-29T13:28:45.773Z,79.10
2018-01-29T13:31:12.058Z,77.40
2018-01-29T13:33:39.062Z,76.10
2018-01-29T13:36:05.372Z,76.10
2018-01-29T13:38:31.722Z,74.50
2018-01-29T13:40:58.046Z,75.10
2018-01-29T13:43:24.319Z,74.80
2018-01-29T13:45:51.592Z,74.50
2018-01-29T13:48:23.191Z,72.40
2018-01-29T13:50:49.458Z,72.20
2018-01-29T13:53:15.743Z,72.60
2018-01-29T13:55:42.038Z,71.80
2018-01-29T13:58:09.066Z,69.90
2018-01-29T14:00:36.086Z,70.20
2018-01-29T14:03:02.372Z,69.90
2018-01-29T14:05:28.671Z,70.40
2018-01-29T14:07:54.983Z,68.20
2018-01-29T14:10:21.277Z,67.60
2018-01-29T14:12:47.626Z,67.70
2018-01-29T14:15:13.958Z,68.00
2018-01-29T14:17:40.247Z,69.00
2018-01-29T14:20:07.306Z,69.90
2018-01-29T14:22:33.603Z,70.00
2018-01-29T14:24:59.899Z,69.70
2018-01-29T14:27:26.171Z,68.20
2018-01-29T14:29:53.185Z,69.00
2018-01-29T14:32:19.482Z,69.10
2018-01-29T14:34:45.751Z,69.30
2018-01-29T14:37:12.068Z,69.00
2018-01-29T14:39:38.334Z,69.20
2018-01-29T14:42:06.835Z,69.60
2018-01-29T14:44:33.106Z,69.50
2018-01-29T14:46:59.402Z,69.00
2018-01-29T14:49:25.672Z,69.40
2018-01-29T14:51:51.967Z,70.00
2018-01-29T14:54:18.243Z,70.40
2018-01-29T14:56:44.534Z,71.40
2018-01-29T14:59:10.812Z,70.70
2018-01-29T15:01:37.901Z,73.80
2018-01-29T15:04:08.462Z,73.90
2018-01-29T15:06:34.738Z,72.80
2018-01-29T15:09:01.767Z,72.90
2018-01-29T15:11:28.783Z,71.70
2018-01-29T15:13:55.067Z,71.70
2018-01-29T15:16:22.099Z,73.00
2018-01-29T15:18:48.377Z,73.10
2018-01-29T15:21:14.663Z,73.80
2018-01-29T15:23:41.691Z,73.20
2018-01-29T15:26:07.968Z,73.10
2018-01-29T15:28:34.242Z,72.90
2018-01-29T15:31:00.543Z,74.80
2018-01-29T15:33:26.835Z,75.30
2018-01-29T15:35:53.859Z,77.60
2018-01-29T15:38:22.262Z,77.60
2018-01-29T15:40:50.330Z,80.70
2018-01-29T15:43:17.346Z,81.80
2018-01-29T15:45:43.639Z,81.70
2018-01-29T15:48:09.978Z,83.00
2018-01-29T15:50:36.255Z,84.00
2018-01-29T15:53:04.806Z,88.20
2018-01-29T15:55:31.120Z,88.10
2018-01-29T15:57:57.650Z,90.40
2018-01-29T16:00:23.948Z,91.60
2018-01-29T16:02:52.047Z,94.10
2018-01-29T16:05:19.130Z,94.10
2018-01-29T16:07:45.461Z,95.50
2018-01-29T16:10:11.799Z,97.00
2018-01-29T16:12:38.110Z,98.70
2018-01-29T16:15:04.386Z,99.90
2018-01-29T16:17:31.446Z,99.90
2018-01-29T16:19:57.756Z,99.90
2018-01-29T16:22:24.806Z,99.90
2018-01-29T16:24:51.835Z,99.90
2018-01-29T16:27:18.150Z,99.90
2018-01-29T16:29:44.439Z,99.90
2018-01-29T16:32:11.447Z,99.90
2018-01-29T16:34:37.770Z,99.90
2018-01-29T16:37:04.773Z,99.90
2018-01-29T16:39:31.053Z,99.90
2018-01-29T16:41:57.346Z,99.90
2018-01-29T16:44:24.462Z,99.90
2018-01-29T16:46:50.762Z,99.90
2018-01-29T16:49:17.046Z,99.90
2018-01-29T16:51:43.335Z,99.90
2018-01-29T16:54:10.371Z,99.90
2018-01-29T16:56:36.664Z,99.90
2018-01-29T16:59:02.955Z,99.90
2018-01-29T17:01:29.262Z,99.90
2018-01-29T17:03:56.599Z,99.90
2018-01-29T17:06:22.919Z,99.90
2018-01-29T17:08:49.201Z,99.90
2018-01-29T17:11:15.525Z,99.90
2018-01-29T17:13:42.547Z,99.90
2018-01-29T17:16:08.819Z,99.90
2018-01-29T17:18:35.178Z,99.90
2018-01-29T17:21:01.462Z,99.90
2018-01-29T17:23:27.929Z,99.90
2018-01-29T17:25:54.262Z,99.90
2018-01-29T17:28:20.566Z,99.90
2018-01-29T17:30:46.858Z,99.90
2018-01-29T17:33:13.482Z,99.90
2018-01-29T17:35:39.826Z,99.90
2018-01-29T17:38:06.245Z,99.90
2018-01-29T17:40:32.551Z,99.90
2018-01-29T17:43:02.414Z,99.90
2018-01-29T17:45:29.442Z,99.90
2018-01-29T17:47:55.753Z,99.90
2018-01-29T17:50:22.056Z,99.90
2018-01-29T17:52:48.398Z,99.90
2018-01-29T17:55:14.690Z,99.90
2018-01-29T17:57:47.830Z,99.90
2018-01-29T18:00:17.563Z,99.90
2018-01-29T18:02:43.878Z,99.90
2018-01-29T18:05:10.171Z,99.90
2018-01-29T18:07:36.465Z,99.90
2018-01-29T18:10:03.578Z,99.90
2018-01-29T18:12:31.250Z,99.90
2018-01-29T18:14:57.560Z,99.90
2018-01-29T18:17:23.877Z,99.90
2018-01-29T18:19:50.150Z,99.90
2018-01-29T18:22:16.470Z,99.90
2018-01-29T18:24:43.996Z,99.90
2018-01-29T18:27:10.320Z,99.90
2018-01-29T18:29:36.598Z,99.90
2018-01-29T18:32:03.290Z,99.90
2018-01-29T18:34:29.573Z,99.90
2018-01-29T18:36:55.918Z,99.90
2018-01-29T18:39:34.726Z,99.90
2018-01-29T18:42:01.034Z,99.90
2018-01-29T18:44:27.671Z,99.90
2018-01-29T18:46:53.981Z,99.90
2018-01-29T18:49:20.324Z,99.90
2018-01-29T18:51:46.655Z,99.90
2018-01-29T18:54:13.279Z,99.90
2018-01-29T18:56:40.394Z,99.90
2018-01-29T18:59:06.682Z,99.90
2018-01-29T19:01:33.371Z,99.90
2018-01-29T19:04:00.034Z,99.90
2018-01-29T19:06:26.347Z,99.90
2018-01-29T19:08:52.642Z,99.90
2018-01-29T19:11:20.271Z,99.90
2018-01-29T19:13:46.546Z,99.90
2018-01-29T19:16:12.867Z,99.90
2018-01-29T19:18:39.166Z,99.90
2018-01-29T19:21:05.450Z,99.90
2018-01-29T19:23:31.752Z,99.90
2018-01-29T19:25:58.805Z,99.90
2018-01-29T19:28:25.102Z,99.90
2018-01-29T19:30:51.408Z,99.90
2018-01-29T19:33:18.463Z,99.90
2018-01-29T19:35:45.762Z,99.90
2018-01-29T19:38:12.810Z,99.90
2018-01-29T19:40:40.810Z,99.90
2018-01-29T19:43:07.123Z,99.90
2018-01-29T19:45:33.429Z,99.90
2018-01-29T19:48:01.778Z,99.90
2018-01-29T19:50:28.063Z,99.90
2018-01-29T19:52:54.379Z,99.90
2018-01-29T19:55:22.159Z,99.90
2018-01-29T19:57:48.443Z,99.90
2018-01-29T20:00:14.750Z,99.90
2018-01-29T20:02:42.055Z,99.90
2018-01-29T20:05:09.099Z,99.90
2018-01-29T20:07:37.137Z,99.90
2018-01-29T20:10:03.439Z,99.90
2018-01-29T20:12:29.722Z,99.90
2018-01-29T20:14:56.766Z,99.90
2018-01-29T20:17:23.081Z,99.90
2018-01-29T20:19:49.394Z,99.90
2018-01-29T20:22:15.702Z,99.90
2018-01-29T20:24:42.039Z,99.90
2018-01-29T20:27:08.340Z,99.90
2018-01-29T20:29:34.630Z,99.90
2018-01-29T20:32:00.975Z,99.90
2018-01-29T20:34:27.268Z,99.90
2018-01-29T20:36:53.566Z,99.90
2018-01-29T20:39:19.898Z,99.90
2018-01-29T20:41:46.225Z,99.90
2018-01-29T20:44:12.614Z,99.90
2018-01-29T20:46:39.034Z,99.90
2018-01-29T20:49:05.365Z,99.90
2018-01-29T20:51:31.691Z,99.90
2018-01-29T20:54:01.537Z,99.90
2018-01-29T20:56:28.704Z,99.90
2018-01-29T20:58:55.758Z,99.90
2018-01-29T21:01:22.814Z,99.90
2018-01-29T21:03:49.156Z,99.90
2018-01-29T21:06:15.493Z,99.90
2018-01-29T21:08:42.781Z,99.90
2018-01-29T21:11:09.091Z,99.90
2018-01-29T21:13:35.384Z,99.90
2018-01-29T21:16:01.673Z,99.90
2018-01-29T21:18:28.728Z,99.90
2018-01-29T21:20:55.322Z,99.90
2018-01-29T21:23:21.645Z,99.90
2018-01-29T21:25:47.992Z,99.90
2018-01-29T21:28:14.275Z,99.90
2018-01-29T21:30:41.373Z,99.90
2018-01-29T21:33:07.677Z,99.90
2018-01-29T21:35:34.003Z,99.90
2018-01-29T21:38:00.344Z,99.90
2018-01-29T21:40:27.338Z,99.90
2018-01-29T21:42:55.612Z,99.90
2018-01-29T21:45:21.899Z,99.90
2018-01-29T21:47:48.191Z,99.90
2018-01-29T21:50:16.265Z,99.90
2018-01-29T21:52:43.288Z,99.90
2018-01-29T21:55:11.081Z,99.90
2018-01-29T21:57:38.107Z,99.90
2018-01-29T22:00:04.470Z,99.90
2018-01-29T22:02:31.327Z,99.90
2018-01-29T22:04:57.626Z,99.90
2018-01-29T22:07:24.719Z,99.90
2018-01-29T22:09:51.038Z,99.90
2018-01-29T22:12:17.318Z,99.90
2018-01-29T22:14:43.635Z,99.90
2018-01-29T22:17:09.922Z,99.90
2018-01-29T22:19:36.222Z,99.90
2018-01-29T22:22:03.266Z,99.90
2018-01-29T22:24:29.566Z,99.90
2018-01-29T22:26:55.874Z,99.90
2018-01-29T22:29:22.179Z,99.90
2018-01-29T22:31:49.099Z,99.90
2018-01-29T22:34:15.462Z,99.90
2018-01-29T22:36:42.510Z,99.90
2018-01-29T22:39:08.815Z,99.90
2018-01-29T22:41:35.882Z,99.90
2018-01-29T22:44:02.212Z,99.90
2018-01-29T22:46:28.558Z,99.90
2018-01-29T22:48:54.896Z,99.90
2018-01-29T22:51:21.175Z,99.90
2018-01-29T22:53:47.509Z,99.90
2018-01-29T22:56:16.246Z,99.90
2018-01-29T22:58:42.588Z,99.90
2018-01-29T23:01:08.933Z,99.90
2018-01-29T23:03:35.268Z,99.90
2018-01-29T23:06:01.546Z,99.90
2018-01-29T23:08:27.862Z,99.90
2018-01-29T23:10:54.906Z,99.90
2018-01-29T23:13:21.978Z,99.90
2018-01-29T23:15:50.185Z,99.90
2018-01-29T23:18:16.484Z,99.90
2018-01-29T23:20:42.809Z,99.90
2018-01-29T23:23:09.150Z,99.90
2018-01-29T23:25:35.461Z,99.90
2018-01-29T23:28:02.528Z,99.90
2018-01-29T23:30:28.909Z,99.90
2018-01-29T23:32:55.206Z,99.90
2018-01-29T23:35:21.514Z,99.90
2018-01-29T23:37:47.851Z,99.90
2018-01-29T23:40:14.160Z,99.90
2018-01-29T23:42:41.194Z,99.90
2018-01-29T23:45:07.510Z,99.90
2018-01-29T23:47:33.843Z,99.90
2018-01-29T23:50:00.154Z,99.90
2018-01-29T23:52:27.461Z,99.90
2018-01-29T23:54:53.758Z,99.90
2018-01-29T23:57:20.054Z,99.90
2018-01-29T23:59:46.391Z,99.90
